Time;durP1;ratioP1;P1;durP2;ratioP2;P2;SDS_P1;SDS_P2;PMS_P1;PMS_P2;Temp;Humidity;BMP_temperature;BMP_pressure;BME280_temperature;BME280_humidity;BME280_pressure;Samples;Min_cycle;Max_cycle;Signal;HPM_P1;HPM_P2
2024/01/02 00:01:34;;;;;;;18.88;3.55;;;7.50;99.90;;;;;;5054117;28;20429;-68
2024/01/02 00:04:00;;;;;;;18.35;3.58;;;7.50;99.90;;;;;;5033604;28;20025;-68
2024/01/02 00:06:25;;;;;;;17.02;3.15;;;7.50;99.90;;;;;;5059724;28;20021;-69
2024/01/02 00:08:51;;;;;;;21.83;3.63;;;7.50;99.90;;;;;;5057912;28;20025;-68
2024/01/02 00:11:17;;;;;;;15.60;3.13;;;7.50;99.90;;;;;;5052678;28;20040;-68
2024/01/02 00:13:42;;;;;;;22.15;3.45;;;7.50;99.90;;;;;;5053063;28;20030;-69
2024/01/02 00:16:08;;;;;;;22.17;3.50;;;7.50;99.90;;;;;;5056094;28;20386;-68
2024/01/02 00:18:34;;;;;;;19.60;3.67;;;7.50;99.90;;;;;;5043121;28;20506;-69
2024/01/02 00:21:00;;;;;;;15.95;3.08;;;7.50;99.90;;;;;;5037299;28;20524;-69
2024/01/02 00:23:25;;;;;;;23.95;3.42;;;7.50;99.90;;;;;;5052949;28;20071;-68
2024/01/02 00:25:51;;;;;;;16.70;2.95;;;7.50;99.90;;;;;;5059204;28;20547;-68
2024/01/02 00:28:18;;;;;;;14.98;2.80;;;7.50;99.90;;;;;;5059857;28;20016;-70
2024/01/02 00:30:44;;;;;;;17.30;3.15;;;7.50;99.90;;;;;;5052287;28;20047;-68
2024/01/02 00:33:10;;;;;;;19.15;3.30;;;7.50;99.90;;;;;;5037737;28;20021;-69
2024/01/02 00:35:36;;;;;;;18.77;3.03;;;7.50;99.90;;;;;;5060418;28;20021;-68
2024/01/02 00:38:03;;;;;;;18.73;3.22;;;7.50;99.90;;;;;;5055696;28;20045;-70
2024/01/02 00:40:28;;;;;;;18.67;3.20;;;7.50;99.90;;;;;;5052216;28;20108;-70
2024/01/02 00:42:57;;;;;;;20.25;3.70;;;7.50;99.90;;;;;;5059571;28;20100;-70
2024/01/02 00:45:23;;;;;;;21.73;3.30;;;7.50;99.90;;;;;;5059940;28;20516;-69
2024/01/02 00:47:48;;;;;;;14.52;3.65;;;7.50;99.90;;;;;;5029428;28;20029;-69
2024/01/02 00:50:14;;;;;;;16.08;2.72;;;7.50;99.90;;;;;;5057731;28;20078;-69
2024/01/02 00:52:40;;;;;;;21.00;2.55;;;7.50;99.90;;;;;;5034430;28;20029;-70
2024/01/02 00:55:07;;;;;;;12.73;2.95;;;7.50;99.90;;;;;;5056734;28;20110;-70
2024/01/02 00:57:32;;;;;;;18.55;3.10;;;7.50;99.90;;;;;;5060474;28;20484;-70
2024/01/02 00:59:59;;;;;;;17.02;2.80;;;7.50;99.90;;;;;;5053649;28;20103;-69
2024/01/02 01:02:24;;;;;;;12.45;2.72;;;7.50;99.90;;;;;;5052634;28;20025;-69
2024/01/02 01:04:50;;;;;;;15.48;3.42;;;7.50;99.90;;;;;;5047443;28;20028;-70
2024/01/02 01:07:16;;;;;;;22.67;3.08;;;7.50;99.90;;;;;;5036740;28;20044;-70
2024/01/02 01:09:42;;;;;;;13.45;3.10;;;7.50;99.90;;;;;;5042027;28;20017;-70
2024/01/02 01:12:09;;;;;;;12.55;2.50;;;7.50;99.90;;;;;;5050359;28;20151;-70
2024/01/02 01:14:35;;;;;;;21.25;4.13;;;7.50;99.90;;;;;;5058046;28;20563;-70
2024/01/02 01:17:01;;;;;;;14.98;2.60;;;7.50;99.90;;;;;;5052181;28;20154;-70
2024/01/02 01:19:27;;;;;;;16.70;3.20;;;7.50;99.90;;;;;;5055737;28;20032;-70
2024/01/02 01:21:53;;;;;;;11.77;2.95;;;7.50;99.90;;;;;;5060283;28;20021;-69
2024/01/02 01:24:18;;;;;;;18.02;2.88;;;7.60;99.90;;;;;;5054156;28;20028;-69
2024/01/02 01:26:45;;;;;;;17.67;2.78;;;7.50;99.90;;;;;;5051655;28;20021;-70
2024/01/02 01:29:11;;;;;;;14.32;2.15;;;7.60;99.90;;;;;;5060042;28;20025;-69
2024/01/02 01:31:36;;;;;;;11.45;2.53;;;7.60;99.90;;;;;;5058303;28;20020;-71
2024/01/02 01:34:02;;;;;;;11.75;2.40;;;7.60;99.90;;;;;;5033827;28;20021;-68
2024/01/02 01:36:27;;;;;;;11.32;2.30;;;7.60;99.90;;;;;;5058209;28;20046;-68
2024/01/02 01:38:53;;;;;;;9.38;2.20;;;7.60;99.90;;;;;;5063480;28;20569;-69
2024/01/02 01:41:19;;;;;;;12.65;2.28;;;7.60;99.90;;;;;;5031776;28;20021;-70
2024/01/02 01:43:45;;;;;;;13.10;2.63;;;7.60;99.90;;;;;;5063877;28;20021;-69
2024/01/02 01:46:15;;;;;;;9.68;2.45;;;7.60;99.90;;;;;;5055848;28;20095;-69
2024/01/02 01:48:41;;;;;;;11.63;1.90;;;7.60;99.90;;;;;;5056654;28;20025;-69
2024/01/02 01:51:07;;;;;;;14.43;2.35;;;7.60;99.90;;;;;;5045405;28;20092;-68
2024/01/02 01:53:43;;;;;;;13.85;2.70;;;7.60;99.90;;;;;;5060803;28;20067;-68
2024/01/02 01:56:09;;;;;;;12.68;2.30;;;7.60;99.90;;;;;;5055261;28;20020;-68
2024/01/02 01:58:34;;;;;;;10.15;1.92;;;7.60;99.90;;;;;;5059431;28;20017;-69
2024/01/02 02:01:00;;;;;;;11.93;2.17;;;7.60;99.90;;;;;;5063321;28;20841;-68
2024/01/02 02:03:27;;;;;;;15.77;2.53;;;7.70;99.90;;;;;;5039552;28;20398;-68
2024/01/02 02:05:53;;;;;;;12.13;1.80;;;7.70;99.90;;;;;;5036901;28;20029;-69
2024/01/02 02:08:18;;;;;;;12.07;2.05;;;7.70;99.90;;;;;;5045355;28;20020;-68
2024/01/02 02:10:44;;;;;;;7.13;1.50;;;7.70;99.90;;;;;;5061187;28;20032;-68
2024/01/02 02:13:10;;;;;;;6.00;1.63;;;7.60;99.90;;;;;;5064867;28;20252;-68
2024/01/02 02:15:40;;;;;;;7.28;1.40;;;7.60;99.90;;;;;;5037562;28;20020;-68
2024/01/02 02:18:06;;;;;;;5.68;1.42;;;7.60;99.90;;;;;;5056350;28;20078;-68
2024/01/02 02:20:31;;;;;;;7.10;1.35;;;7.70;99.90;;;;;;5044916;28;20036;-68
2024/01/02 02:22:57;;;;;;;8.82;1.48;;;7.60;99.90;;;;;;5049125;28;20031;-68
2024/01/02 02:25:23;;;;;;;6.82;1.23;;;7.60;99.90;;;;;;5062772;28;20029;-68
2024/01/02 02:27:49;;;;;;;9.13;1.92;;;7.60;99.90;;;;;;5057771;28;20025;-68
2024/01/02 02:30:15;;;;;;;6.65;1.83;;;7.70;99.90;;;;;;5036606;28;20048;-68
2024/01/02 02:32:41;;;;;;;7.32;1.38;;;7.70;99.90;;;;;;5061729;28;20051;-69
2024/01/02 02:35:08;;;;;;;7.30;1.33;;;7.60;99.90;;;;;;5061897;28;20450;-69
2024/01/02 02:37:34;;;;;;;5.13;1.30;;;7.70;99.90;;;;;;5055062;28;20029;-69
2024/01/02 02:40:00;;;;;;;5.97;1.13;;;7.70;99.90;;;;;;5056821;28;20624;-69
2024/01/02 02:42:25;;;;;;;5.85;0.90;;;7.70;99.90;;;;;;5062958;28;20127;-69
2024/01/02 02:44:51;;;;;;;2.17;0.65;;;7.70;99.90;;;;;;5057654;28;20119;-68
2024/01/02 02:47:17;;;;;;;3.45;0.90;;;7.70;99.90;;;;;;5053616;28;20394;-69
2024/01/02 02:49:42;;;;;;;2.45;0.80;;;7.70;99.90;;;;;;5061286;28;20029;-69
2024/01/02 02:52:08;;;;;;;5.85;1.13;;;7.70;99.90;;;;;;5061915;28;20021;-68
2024/01/02 02:54:34;;;;;;;4.70;0.95;;;7.70;99.90;;;;;;5054607;28;20025;-70
2024/01/02 02:57:00;;;;;;;4.90;0.85;;;7.70;99.90;;;;;;5057130;28;20032;-69
2024/01/02 02:59:26;;;;;;;4.80;1.00;;;7.70;99.90;;;;;;5044522;28;20082;-68
2024/01/02 03:01:51;;;;;;;5.40;1.05;;;7.70;99.90;;;;;;5057236;28;20549;-70
2024/01/02 03:04:17;;;;;;;5.18;1.20;;;7.70;99.90;;;;;;5050720;28;20044;-69
2024/01/02 03:06:43;;;;;;;1.67;0.65;;;7.70;99.90;;;;;;5061079;28;20036;-69
2024/01/02 03:09:10;;;;;;;4.57;1.10;;;7.70;99.90;;;;;;5061535;28;20466;-69
2024/01/02 03:11:35;;;;;;;2.53;0.88;;;7.70;99.90;;;;;;5052598;28;20111;-69
2024/01/02 03:14:01;;;;;;;6.85;1.00;;;7.70;99.90;;;;;;5055736;28;20100;-69
2024/01/02 03:16:27;;;;;;;6.47;0.90;;;7.70;99.90;;;;;;5054691;28;20052;-69
2024/01/02 03:18:52;;;;;;;2.83;0.90;;;7.70;99.90;;;;;;5053430;28;20013;-69
2024/01/02 03:21:18;;;;;;;2.85;0.70;;;7.70;99.90;;;;;;5056499;28;20079;-68
2024/01/02 03:23:43;;;;;;;1.23;0.60;;;7.70;99.90;;;;;;5061954;28;20017;-69
2024/01/02 03:26:11;;;;;;;2.28;0.90;;;7.70;99.90;;;;;;5057321;28;20028;-69
2024/01/02 03:28:37;;;;;;;3.50;1.00;;;7.80;99.90;;;;;;5036151;28;20124;-69
2024/01/02 03:31:05;;;;;;;2.28;0.82;;;7.70;99.90;;;;;;5059985;28;20132;-69
2024/01/02 03:33:31;;;;;;;2.40;0.50;;;7.70;99.90;;;;;;5043582;28;20086;-69
2024/01/02 03:35:57;;;;;;;2.65;0.93;;;7.80;99.90;;;;;;5039484;28;20016;-69
2024/01/02 03:38:24;;;;;;;1.92;0.70;;;7.80;99.90;;;;;;5055884;28;20048;-69
2024/01/02 03:40:50;;;;;;;2.80;0.70;;;7.80;99.90;;;;;;5061428;28;20017;-69
2024/01/02 03:43:15;;;;;;;1.67;0.60;;;7.70;99.90;;;;;;5039798;28;20119;-68
2024/01/02 03:45:41;;;;;;;1.95;0.80;;;7.80;99.90;;;;;;5053364;28;20035;-68
2024/01/02 03:48:07;;;;;;;0.98;0.60;;;7.70;99.90;;;;;;5059427;28;20078;-69
2024/01/02 03:50:32;;;;;;;1.02;0.55;;;7.70;99.90;;;;;;5061425;28;20074;-69
2024/01/02 03:52:58;;;;;;;1.23;0.70;;;7.80;99.90;;;;;;5053750;28;20098;-69
2024/01/02 03:55:23;;;;;;;1.65;0.65;;;7.70;99.90;;;;;;5037219;28;20029;-69
2024/01/02 03:57:49;;;;;;;1.05;0.57;;;7.80;99.90;;;;;;5043195;28;20568;-68
2024/01/02 04:00:15;;;;;;;0.73;0.63;;;7.80;99.90;;;;;;5056656;28;20875;-68
2024/01/02 04:02:40;;;;;;;0.65;0.65;;;7.80;99.90;;;;;;5053116;28;20025;-69
2024/01/02 04:05:07;;;;;;;0.60;0.55;;;7.80;99.90;;;;;;5063044;28;20031;-68
2024/01/02 04:07:32;;;;;;;0.85;0.70;;;7.80;99.90;;;;;;5053255;28;20025;-68
2024/01/02 04:09:59;;;;;;;2.05;0.80;;;7.80;99.90;;;;;;5038708;28;20098;-68
2024/01/02 04:12:24;;;;;;;1.35;0.82;;;7.80;99.90;;;;;;5037101;28;20032;-69
2024/01/02 04:14:50;;;;;;;2.67;0.90;;;7.80;99.90;;;;;;5060976;28;20031;-69
2024/01/02 04:17:16;;;;;;;3.15;1.10;;;7.80;99.90;;;;;;5052785;28;20024;-69
2024/01/02 04:19:41;;;;;;;0.88;0.60;;;7.80;99.90;;;;;;5054494;28;20647;-69
2024/01/02 04:22:07;;;;;;;2.55;0.65;;;7.80;99.90;;;;;;5051021;28;20065;-69
2024/01/02 04:24:35;;;;;;;0.50;0.50;;;7.80;99.90;;;;;;5038731;28;20379;-69
2024/01/02 04:27:01;;;;;;;0.55;0.40;;;7.90;99.90;;;;;;5048831;28;20029;-69
2024/01/02 04:29:26;;;;;;;0.93;0.50;;;7.90;99.90;;;;;;5040362;28;20398;-69
2024/01/02 04:31:52;;;;;;;0.63;0.50;;;8.00;99.90;;;;;;5060000;28;20481;-69
2024/01/02 04:34:18;;;;;;;0.50;0.40;;;8.10;99.90;;;;;;5053649;28;20048;-68
2024/01/02 04:36:44;;;;;;;0.47;0.40;;;8.10;99.90;;;;;;5053893;28;20053;-68
2024/01/02 04:39:10;;;;;;;0.47;0.47;;;8.10;99.90;;;;;;5042519;28;20087;-69
2024/01/02 04:41:35;;;;;;;1.23;0.70;;;8.10;99.90;;;;;;5056707;28;20016;-69
2024/01/02 04:44:01;;;;;;;0.93;0.60;;;8.20;99.90;;;;;;5052214;28;20055;-69
2024/01/02 04:46:27;;;;;;;0.82;0.60;;;8.20;99.90;;;;;;5057867;28;20029;-69
2024/01/02 04:48:54;;;;;;;0.70;0.68;;;8.20;99.90;;;;;;5060960;28;20025;-69
2024/01/02 04:51:19;;;;;;;1.52;0.77;;;8.20;99.90;;;;;;5052758;28;20099;-69
2024/01/02 04:53:45;;;;;;;0.88;0.80;;;8.20;99.90;;;;;;5054188;28;20136;-69
2024/01/02 04:56:11;;;;;;;3.63;0.90;;;8.30;99.90;;;;;;5060535;28;20023;-69
2024/01/02 04:58:37;;;;;;;2.80;1.10;;;8.30;99.90;;;;;;5057080;28;20119;-69
2024/01/02 05:01:05;;;;;;;1.15;0.95;;;8.30;99.90;;;;;;5052205;28;20017;-70
2024/01/02 05:03:31;;;;;;;1.40;1.15;;;8.30;99.90;;;;;;5058050;28;20263;-69
2024/01/02 05:05:57;;;;;;;2.10;1.10;;;8.40;99.90;;;;;;5055989;28;20435;-70
2024/01/02 05:08:23;;;;;;;1.02;0.93;;;8.40;99.90;;;;;;5053397;28;20035;-70
2024/01/02 05:10:48;;;;;;;1.60;1.05;;;8.40;99.90;;;;;;5054175;28;20017;-70
2024/01/02 05:13:14;;;;;;;4.45;1.48;;;8.50;99.90;;;;;;5055176;28;20040;-70
2024/01/02 05:15:40;;;;;;;1.73;1.23;;;8.50;99.90;;;;;;5063182;28;20025;-69
2024/01/02 05:18:06;;;;;;;2.10;1.20;;;8.60;99.90;;;;;;5063366;28;20048;-70
2024/01/02 05:20:32;;;;;;;1.88;1.10;;;8.60;99.90;;;;;;5055924;28;20103;-69
2024/01/02 05:23:03;;;;;;;2.20;1.42;;;8.70;99.90;;;;;;5059452;28;20031;-69
2024/01/02 05:25:32;;;;;;;1.88;1.13;;;8.70;99.90;;;;;;5064259;28;20025;-69
2024/01/02 05:27:57;;;;;;;1.67;1.20;;;8.80;99.90;;;;;;5060377;28;20073;-69
2024/01/02 05:30:23;;;;;;;2.50;1.40;;;8.80;99.90;;;;;;5055926;28;20025;-69
2024/01/02 05:32:50;;;;;;;2.28;1.50;;;8.90;99.90;;;;;;5062043;28;20035;-69
2024/01/02 05:35:15;;;;;;;1.98;1.50;;;8.90;99.90;;;;;;5064128;28;20043;-69
2024/01/02 05:37:41;;;;;;;1.88;1.52;;;8.90;99.90;;;;;;5037655;28;20024;-70
2024/01/02 05:40:09;;;;;;;2.30;1.58;;;9.00;99.90;;;;;;5057729;28;20528;-70
2024/01/02 05:42:34;;;;;;;2.25;1.67;;;9.00;99.90;;;;;;5063840;28;20025;-69
2024/01/02 05:45:00;;;;;;;2.30;1.60;;;9.10;99.90;;;;;;5060313;28;20025;-70
2024/01/02 05:47:26;;;;;;;3.05;1.83;;;9.20;99.90;;;;;;5055700;28;20021;-69
2024/01/02 05:49:52;;;;;;;2.47;1.70;;;9.20;99.90;;;;;;5061503;28;20021;-69
2024/01/02 05:52:17;;;;;;;2.83;1.90;;;9.30;99.90;;;;;;5063646;28;20130;-69
2024/01/02 05:54:43;;;;;;;3.00;1.83;;;9.30;99.90;;;;;;5056073;28;20051;-70
2024/01/02 05:57:10;;;;;;;2.60;2.00;;;9.40;99.90;;;;;;5057199;28;20089;-70
2024/01/02 05:59:36;;;;;;;4.22;2.00;;;9.40;99.90;;;;;;5063417;28;20090;-69
2024/01/02 06:02:01;;;;;;;4.32;1.98;;;9.50;99.90;;;;;;5059853;28;20028;-70
2024/01/02 06:04:27;;;;;;;3.35;2.05;;;9.50;99.90;;;;;;5052058;28;20056;-70
2024/01/02 06:06:53;;;;;;;4.35;2.10;;;9.60;99.90;;;;;;5060643;28;20025;-69
2024/01/02 06:09:18;;;;;;;3.10;1.92;;;9.60;99.90;;;;;;5063653;28;20526;-70
2024/01/02 06:11:44;;;;;;;4.13;1.90;;;9.70;99.90;;;;;;5052802;28;20078;-71
2024/01/02 06:14:11;;;;;;;3.47;2.30;;;9.80;99.90;;;;;;5058068;28;20485;-70
2024/01/02 06:16:37;;;;;;;3.95;2.20;;;9.90;99.90;;;;;;5055111;28;20048;-70
2024/01/02 06:19:04;;;;;;;3.97;2.03;;;9.90;99.90;;;;;;5062280;28;20033;-70
2024/01/02 06:21:30;;;;;;;3.58;2.10;;;10.00;99.90;;;;;;5061399;28;20086;-70
2024/01/02 06:23:55;;;;;;;3.65;2.15;;;10.00;99.90;;;;;;5054320;28;20012;-70
2024/01/02 06:26:21;;;;;;;4.75;2.33;;;10.00;99.90;;;;;;5039969;28;20025;-70
2024/01/02 06:28:47;;;;;;;5.05;2.40;;;10.10;99.90;;;;;;5063062;28;20426;-69
2024/01/02 06:31:12;;;;;;;5.45;2.63;;;10.20;99.90;;;;;;5057883;28;20359;-70
2024/01/02 06:33:44;;;;;;;5.57;2.75;;;10.20;99.90;;;;;;5037059;28;20510;-70
2024/01/02 06:36:10;;;;;;;5.75;3.00;;;10.20;99.90;;;;;;5061253;28;20032;-71
2024/01/02 06:38:36;;;;;;;8.95;3.63;;;10.30;99.90;;;;;;5062554;28;20045;-71
2024/01/02 06:41:02;;;;;;;5.82;2.88;;;10.40;99.90;;;;;;5054556;28;20013;-70
2024/01/02 06:43:28;;;;;;;11.27;4.10;;;10.40;99.90;;;;;;5057097;28;20095;-70
2024/01/02 06:45:54;;;;;;;8.23;4.20;;;10.50;99.90;;;;;;5059403;28;20028;-70
2024/01/02 06:48:20;;;;;;;14.95;5.07;;;10.50;99.90;;;;;;5059898;28;20026;-71
2024/01/02 06:50:46;;;;;;;9.38;4.82;;;10.60;99.90;;;;;;5045374;28;20068;-71
2024/01/02 06:53:12;;;;;;;14.48;6.30;;;10.60;99.90;;;;;;5042381;28;20016;-70
2024/01/02 06:55:38;;;;;;;11.68;6.63;;;10.70;99.90;;;;;;5040424;28;20471;-71
2024/01/02 06:58:04;;;;;;;14.45;5.95;;;10.70;99.90;;;;;;5047687;28;20025;-71
2024/01/02 07:00:30;;;;;;;14.48;7.30;;;10.80;99.90;;;;;;5052312;28;20028;-70
2024/01/02 07:02:56;;;;;;;15.75;7.03;;;10.90;99.90;;;;;;5024863;28;20020;-71
2024/01/02 07:05:21;;;;;;;14.10;7.72;;;10.90;99.90;;;;;;5024937;28;20398;-71
2024/01/02 07:07:47;;;;;;;15.60;8.18;;;11.00;99.90;;;;;;5057953;28;20020;-71
2024/01/02 07:10:13;;;;;;;19.23;8.57;;;11.00;99.90;;;;;;5056344;28;20020;-71
2024/01/02 07:12:39;;;;;;;19.08;7.50;;;11.10;99.90;;;;;;5046069;28;20031;-71
2024/01/02 07:15:05;;;;;;;19.30;8.23;;;11.10;99.90;;;;;;5052051;28;20079;-71
2024/01/02 07:17:31;;;;;;;16.30;7.65;;;11.10;99.90;;;;;;5056161;28;20024;-71
2024/01/02 07:19:58;;;;;;;17.33;7.60;;;11.20;99.90;;;;;;5053929;28;20431;-71
2024/01/02 07:22:24;;;;;;;18.77;8.43;;;11.20;99.90;;;;;;5061347;28;20049;-71
2024/01/02 07:24:50;;;;;;;21.50;7.95;;;11.20;99.90;;;;;;5057660;28;20075;-71
2024/01/02 07:27:16;;;;;;;19.33;6.97;;;11.20;99.90;;;;;;5046845;28;20099;-71
2024/01/02 07:29:41;;;;;;;16.38;7.10;;;11.20;99.90;;;;;;5044515;28;20025;-71
2024/01/02 07:32:07;;;;;;;15.32;6.95;;;11.30;99.90;;;;;;5051540;28;20029;-70
2024/01/02 07:34:33;;;;;;;16.92;7.70;;;11.30;99.90;;;;;;5036280;28;20536;-71
2024/01/02 07:36:59;;;;;;;15.88;7.07;;;11.30;99.90;;;;;;5039091;28;20612;-71
2024/01/02 07:39:26;;;;;;;19.55;6.88;;;11.30;99.90;;;;;;5061060;28;20422;-71
2024/01/02 07:41:52;;;;;;;23.02;7.57;;;11.30;99.90;;;;;;5059902;28;20436;-71
2024/01/02 07:44:18;;;;;;;24.98;7.70;;;11.30;99.90;;;;;;5053741;28;20016;-71
2024/01/02 07:46:45;;;;;;;24.05;6.80;;;11.30;99.90;;;;;;5056283;28;20041;-70
2024/01/02 07:49:11;;;;;;;21.85;6.70;;;11.40;99.90;;;;;;5021651;28;20386;-71
2024/01/02 07:51:36;;;;;;;25.58;6.90;;;11.40;99.90;;;;;;5051871;28;20040;-71
2024/01/02 07:54:02;;;;;;;19.13;6.13;;;11.40;99.90;;;;;;5046133;28;20070;-71
2024/01/02 07:56:30;;;;;;;19.15;5.80;;;11.40;99.90;;;;;;5057850;28;20047;-71
2024/01/02 07:58:56;;;;;;;21.10;6.60;;;11.40;99.90;;;;;;5031679;28;20102;-71
2024/01/02 08:01:22;;;;;;;17.38;5.70;;;11.40;99.90;;;;;;5052617;28;20462;-70
2024/01/02 08:03:48;;;;;;;21.70;5.63;;;11.40;99.90;;;;;;5048765;28;20554;-71
2024/01/02 08:06:13;;;;;;;23.05;5.40;;;11.40;99.90;;;;;;5037449;28;20048;-70
2024/01/02 08:08:39;;;;;;;20.02;5.32;;;11.40;99.90;;;;;;5045262;28;20039;-70
2024/01/02 08:11:05;;;;;;;19.85;5.20;;;11.40;99.90;;;;;;5031336;28;20040;-71
2024/01/02 08:13:31;;;;;;;25.08;5.20;;;11.40;99.90;;;;;;5039557;28;20020;-71
2024/01/02 08:16:04;;;;;;;27.08;5.93;;;11.40;99.90;;;;;;5053607;28;20029;-71
2024/01/02 08:18:30;;;;;;;24.02;5.88;;;11.40;99.90;;;;;;5046493;28;20025;-71
2024/01/02 08:20:56;;;;;;;25.75;5.03;;;11.40;99.90;;;;;;5042938;28;20021;-71
2024/01/02 08:23:22;;;;;;;28.13;7.25;;;11.40;99.90;;;;;;5039922;28;20083;-71
2024/01/02 08:25:49;;;;;;;26.33;5.53;;;11.50;99.90;;;;;;5044547;28;20017;-71
2024/01/02 08:28:15;;;;;;;28.33;4.85;;;11.50;99.90;;;;;;5040225;28;20029;-71
2024/01/02 08:30:42;;;;;;;23.67;5.53;;;11.50;99.90;;;;;;5049315;28;20509;-70
2024/01/02 08:33:08;;;;;;;31.30;6.35;;;11.50;99.90;;;;;;5063022;28;20035;-72
2024/01/02 08:35:34;;;;;;;28.17;4.63;;;11.50;99.90;;;;;;5056171;28;20037;-71
2024/01/02 08:37:59;;;;;;;34.25;5.32;;;11.50;99.90;;;;;;5024071;28;20500;-71
2024/01/02 08:40:25;;;;;;;29.25;4.65;;;11.50;99.90;;;;;;5050813;28;20441;-71
2024/01/02 08:42:51;;;;;;;24.45;4.80;;;11.50;99.90;;;;;;5056844;28;20025;-71
2024/01/02 08:45:25;;;;;;;27.85;4.75;;;11.50;99.90;;;;;;5038382;28;20025;-71
2024/01/02 08:47:51;;;;;;;30.75;5.93;;;11.50;99.90;;;;;;5040268;28;20490;-71
2024/01/02 08:50:16;;;;;;;31.60;4.95;;;11.50;99.90;;;;;;5056911;28;20117;-71
2024/01/02 08:52:46;;;;;;;30.50;4.45;;;11.50;99.90;;;;;;5050866;28;20020;-70
2024/01/02 08:55:11;;;;;;;29.83;5.38;;;11.50;99.90;;;;;;5038102;28;20025;-69
2024/01/02 08:57:37;;;;;;;25.92;4.93;;;11.50;99.90;;;;;;5060040;28;20090;-70
2024/01/02 09:00:03;;;;;;;31.45;4.88;;;11.50;99.90;;;;;;5054485;28;20394;-70
2024/01/02 09:02:29;;;;;;;23.90;6.05;;;11.60;99.90;;;;;;5051806;28;20025;-70
2024/01/02 09:04:54;;;;;;;27.15;5.47;;;11.50;99.90;;;;;;5058039;28;20020;-71
2024/01/02 09:07:22;;;;;;;32.25;5.82;;;11.60;99.90;;;;;;5024107;28;20545;-71
2024/01/02 09:09:48;;;;;;;28.88;5.38;;;11.60;99.90;;;;;;5052482;28;20461;-70
2024/01/02 09:12:15;;;;;;;23.75;4.60;;;11.60;99.90;;;;;;5043956;28;20021;-71
2024/01/02 09:14:40;;;;;;;40.20;5.50;;;11.60;99.90;;;;;;5053255;28;20029;-71
2024/01/02 09:17:06;;;;;;;30.55;5.45;;;11.60;99.90;;;;;;5046553;28;20025;-72
2024/01/02 09:19:32;;;;;;;29.20;6.22;;;11.60;99.90;;;;;;5053248;28;20163;-71
2024/01/02 09:21:58;;;;;;;25.13;5.38;;;11.70;99.90;;;;;;5031334;28;20317;-70
2024/01/02 09:24:24;;;;;;;24.55;5.68;;;11.70;99.90;;;;;;5047622;28;20028;-71
2024/01/02 09:26:54;;;;;;;22.92;6.22;;;11.70;99.90;;;;;;5036853;28;20056;-71
2024/01/02 09:29:21;;;;;;;29.65;5.40;;;11.70;99.90;;;;;;5026107;28;20034;-71
2024/01/02 09:31:47;;;;;;;28.13;5.72;;;11.70;99.90;;;;;;5031742;28;20087;-72
2024/01/02 09:34:13;;;;;;;23.13;5.47;;;11.70;99.90;;;;;;5033607;28;20035;-72
2024/01/02 09:36:39;;;;;;;23.77;5.07;;;11.70;99.90;;;;;;5038210;28;20140;-71
2024/01/02 09:39:05;;;;;;;24.00;5.15;;;11.80;99.90;;;;;;5032523;28;20127;-71
2024/01/02 09:41:42;;;;;;;23.85;5.07;;;11.80;99.90;;;;;;5062745;28;20031;-71
2024/01/02 09:44:19;;;;;;;25.58;5.07;;;11.80;99.90;;;;;;5058245;28;20021;-71
2024/01/02 09:47:09;;;;;;;23.08;5.63;;;11.80;99.90;;;;;;5044318;28;20026;-71
2024/01/02 09:49:58;;;;;;;19.33;5.07;;;11.90;99.90;;;;;;5010447;28;20029;-72
2024/01/02 09:52:39;;;;;;;19.55;6.22;;;11.90;99.90;;;;;;5040127;28;20087;-71
2024/01/02 09:55:15;;;;;;;21.00;6.53;;;11.90;99.90;;;;;;5048124;28;20024;-71
2024/01/02 09:57:54;;;;;;;24.73;6.50;;;11.90;99.90;;;;;;5040005;28;20040;-71
2024/01/02 10:00:38;;;;;;;25.40;8.65;;;11.90;99.90;;;;;;5050673;28;20035;-71
2024/01/02 10:03:41;;;;;;;23.25;7.80;;;11.90;99.90;;;;;;5041297;28;20031;-72
2024/01/02 10:06:52;;;;;;;33.17;9.70;;;11.90;99.90;;;;;;5031345;28;20026;-70
2024/01/02 10:09:32;;;;;;;24.00;8.70;;;11.90;99.90;;;;;;4977717;28;20029;-72
2024/01/02 10:12:30;;;;;;;24.83;8.50;;;11.90;99.90;;;;;;5064991;28;20109;-70
2024/01/02 10:15:20;;;;;;;25.65;9.60;;;11.90;99.90;;;;;;5067213;28;20028;-71
2024/01/02 10:18:01;;;;;;;22.75;9.57;;;11.90;99.90;;;;;;5059315;28;20414;-71
2024/01/02 10:20:37;;;;;;;;;;;11.90;99.90;;;;;;5055539;28;20040;-71
2024/01/02 10:23:28;;;;;;;24.58;9.68;;;11.90;99.90;;;;;;5056837;28;19909;-71
2024/01/02 10:26:00;;;;;;;25.85;9.45;;;11.90;99.90;;;;;;5042462;28;20033;-71
2024/01/02 10:28:29;;;;;;;17.35;9.15;;;11.90;99.90;;;;;;5046709;28;20133;-71
2024/01/02 10:31:21;;;;;;;17.92;9.25;;;12.00;99.90;;;;;;5023654;28;20069;-72
2024/01/02 10:34:03;;;;;;;18.70;8.95;;;12.00;99.90;;;;;;5054410;28;20041;-70
2024/01/02 10:36:31;;;;;;;17.95;8.02;;;12.00;99.90;;;;;;5058222;28;20048;-70
2024/01/02 10:39:08;;;;;;;15.52;7.63;;;12.00;99.90;;;;;;5062430;28;20559;-70
2024/01/02 10:41:59;;;;;;;14.88;7.78;;;12.00;99.90;;;;;;5059011;28;20024;-71
2024/01/02 10:44:34;;;;;;;11.73;6.77;;;12.00;99.90;;;;;;5037958;28;20035;-71
2024/01/02 10:47:05;;;;;;;11.52;5.95;;;12.00;99.90;;;;;;5057047;28;20691;-71
2024/01/02 10:49:50;;;;;;;11.55;5.60;;;12.00;99.90;;;;;;5062842;28;20437;-71
2024/01/02 10:52:30;;;;;;;9.88;5.57;;;12.00;99.90;;;;;;5048791;28;20033;-71
2024/01/02 10:55:10;;;;;;;10.85;5.20;;;12.10;99.90;;;;;;5057720;28;20506;-70
2024/01/02 10:57:52;;;;;;;9.90;5.13;;;12.10;99.90;;;;;;5029227;28;20387;-70
2024/01/02 11:00:22;;;;;;;8.45;4.40;;;12.10;99.90;;;;;;5064608;28;20073;-71
2024/01/02 11:02:57;;;;;;;8.15;4.30;;;12.00;99.90;;;;;;5042502;28;20067;-71
2024/01/02 11:05:39;;;;;;;4.88;3.22;;;12.10;99.90;;;;;;5040873;28;20032;-71
2024/01/02 11:08:18;;;;;;;9.35;3.97;;;12.00;99.90;;;;;;5059727;28;20026;-72
2024/01/02 11:11:07;;;;;;;5.60;3.30;;;12.00;99.90;;;;;;5060413;28;20036;-71
2024/01/02 11:13:36;;;;;;;5.57;3.10;;;12.00;99.90;;;;;;5059404;28;20017;-71
2024/01/02 11:16:17;;;;;;;6.53;3.65;;;12.00;99.90;;;;;;5039964;28;20020;-71
2024/01/02 11:18:47;;;;;;;4.68;2.72;;;12.00;99.90;;;;;;5053544;28;20024;-71
2024/01/02 11:21:31;;;;;;;5.25;2.88;;;12.00;99.90;;;;;;5057766;28;20021;-71
2024/01/02 11:24:04;;;;;;;4.10;2.88;;;12.00;99.90;;;;;;5043295;28;20029;-71
2024/01/02 11:26:44;;;;;;;3.53;2.58;;;11.90;99.90;;;;;;5051644;28;20135;-71
2024/01/02 11:29:24;;;;;;;3.55;2.53;;;11.90;99.90;;;;;;5040212;28;20110;-72
2024/01/02 11:31:52;;;;;;;3.42;2.30;;;12.00;99.90;;;;;;5053596;28;20621;-71
2024/01/02 11:34:59;;;;;;;5.60;2.40;;;11.90;99.90;;;;;;5040825;28;20017;-71
2024/01/02 11:37:36;;;;;;;3.45;2.05;;;11.90;99.90;;;;;;5053385;28;20490;-71
2024/01/02 11:40:25;;;;;;;2.72;1.90;;;12.00;99.90;;;;;;5037810;28;20041;-71
2024/01/02 11:42:58;;;;;;;3.63;1.88;;;12.00;99.90;;;;;;5040556;28;20028;-71
2024/01/02 11:45:31;;;;;;;2.22;1.60;;;11.90;99.90;;;;;;5053938;28;20039;-71
2024/01/02 11:48:38;;;;;;;2.50;1.35;;;12.00;99.90;;;;;;5040552;28;20024;-70
2024/01/02 11:51:23;;;;;;;1.83;1.40;;;11.90;99.90;;;;;;5053114;28;20122;-70
2024/01/02 11:54:21;;;;;;;2.35;1.40;;;11.90;99.90;;;;;;5054198;28;20039;-70
2024/01/02 11:56:47;;;;;;;2.58;1.40;;;11.90;99.90;;;;;;5057520;28;20041;-70
2024/01/02 11:59:30;;;;;;;1.70;1.30;;;11.90;99.90;;;;;;5023088;28;20033;-71
2024/01/02 12:02:02;;;;;;;3.33;1.38;;;11.90;99.90;;;;;;5034150;28;20125;-71
2024/01/02 12:05:02;;;;;;;2.90;1.33;;;11.90;99.90;;;;;;5045107;28;20021;-72
2024/01/02 12:07:31;;;;;;;1.02;0.90;;;11.90;99.90;;;;;;5035505;28;20043;-71
2024/01/02 12:09:57;;;;;;;1.27;0.80;;;11.90;99.90;;;;;;5045429;28;20028;-71
2024/01/02 12:12:35;;;;;;;1.10;0.80;;;11.90;99.90;;;;;;5049962;28;20071;-71
2024/01/02 12:15:13;;;;;;;0.82;0.80;;;11.90;99.90;;;;;;5022310;28;20026;-71
2024/01/02 12:17:53;;;;;;;1.05;0.80;;;11.90;99.90;;;;;;5032312;28;20124;-71
2024/01/02 12:20:20;;;;;;;0.73;0.73;;;11.90;99.90;;;;;;5041276;28;20020;-71
2024/01/02 12:22:48;;;;;;;0.82;0.80;;;11.90;99.90;;;;;;5032730;28;20033;-71
2024/01/02 12:25:16;;;;;;;1.30;1.10;;;11.90;99.90;;;;;;5029383;28;20052;-71
2024/01/02 12:27:45;;;;;;;4.43;1.60;;;11.90;99.90;;;;;;5034281;28;20040;-71
2024/01/02 12:30:27;;;;;;;2.92;2.25;;;11.80;99.90;;;;;;5038989;28;20021;-70
2024/01/02 12:33:18;;;;;;;3.10;2.13;;;11.80;99.90;;;;;;5027812;28;20025;-71
2024/01/02 12:35:50;;;;;;;2.92;2.30;;;11.80;99.90;;;;;;5050318;28;20507;-71
2024/01/02 12:38:23;;;;;;;2.40;2.00;;;11.70;99.90;;;;;;5044259;28;20061;-72
2024/01/02 12:40:51;;;;;;;1.50;1.40;;;11.70;99.90;;;;;;5037789;28;20060;-71
2024/01/02 12:43:23;;;;;;;4.18;1.50;;;11.70;99.90;;;;;;5017249;28;20025;-71
2024/01/02 12:46:02;;;;;;;1.25;1.10;;;11.60;99.90;;;;;;5031498;28;20310;-71
2024/01/02 12:48:34;;;;;;;1.20;1.10;;;11.60;99.90;;;;;;5008174;28;20029;-71
2024/01/02 12:51:01;;;;;;;2.38;1.13;;;11.50;99.90;;;;;;5059041;28;20346;-71
2024/01/02 12:53:33;;;;;;;2.00;1.50;;;11.50;99.90;;;;;;5061430;28;20083;-68
2024/01/02 12:56:02;;;;;;;1.60;1.20;;;11.50;99.90;;;;;;5052301;28;20028;-70
2024/01/02 12:58:32;;;;;;;1.23;1.13;;;11.40;99.90;;;;;;5045132;28;20029;-69